首页
METAR-TAF:

METAR-TAF

机场 :

薩姆松, 土耳其

纬度: 41-15-15N, 经度: 036-34-03E, 海拔: 5米

当前天气观测

该预报发布于45分钟前的20:50 UTC
风速2节,风向西南
温度 9°C
湿度 93%
气压 1008 hPa
能見度: 6000
多云层高于400英尺

METAR: LTFH 282050Z 22002KT 6000 BKN004 09/08 Q1008 NOSIG

时间: 00:35 (21:35 UTC)

预报

该预报发布于1小时和55分钟前的19:40 UTC
预报有效从28日的 21点(UTC)到 29日的 06点(UTC)
风速2节,风向多变
能見度: 6000
多云层高于400英尺
成为
从 28日的 23点(UTC)到 29日的 01点(UTC)
能見度: 0500

TAF: LTFH 281940Z 2821/2906 VRB02KT 6000 BKN004 BECMG 2823/2901 0500 FG

超过4000个机场的气象观测和天气预报(METAR&TAF报告)。

可查询的气象台以黄色和红色小点在地图上表示。

将鼠标移到小点上方,可查看气象台名称。

然后点击查看天气观测和预报。

如需切换地图:点击带黑十字的绿色按钮放大地图;点击带横线的绿色按钮缩小地图;或者点击绿色箭头查看邻近地区的地图。


METAR-TAF: